Time;durP1;ratioP1;P1;durP2;ratioP2;P2;SDS_P1;SDS_P2;PMS_P1;PMS_P2;Temp;Humidity;BMP_temperature;BMP_pressure;BME280_temperature;BME280_humidity;BME280_pressure;Samples;Min_cycle;Max_cycle;Signal;HPM_P1;HPM_P2
2022/09/17 00:01:09;;;;;;;3.35;0.95;;;;;;;-140.72;100.00;52792.66;5030520;28;20281;-65
2022/09/17 00:03:35;;;;;;;2.35;0.57;;;;;;;-140.72;100.00;52768.28;5034085;28;20025;-65
2022/09/17 00:06:05;;;;;;;5.38;0.30;;;;;;;-140.72;100.00;52768.28;5031385;28;20048;-64
2022/09/17 00:08:32;;;;;;;2.20;0.35;;;;;;;-140.72;100.00;52737.84;5030369;28;20359;-64
2022/09/17 00:11:07;;;;;;;0.50;0.35;;;;;;;-140.72;100.00;52741.91;5034141;28;20473;-64
2022/09/17 00:13:32;;;;;;;4.65;0.85;;;;;;;-140.72;100.00;52760.19;5032004;28;20033;-65
2022/09/17 00:15:58;;;;;;;5.60;1.10;;;;;;;-140.72;100.00;52812.94;5030674;28;20459;-64
2022/09/17 00:18:23;;;;;;;2.97;0.60;;;;;;;-140.72;100.00;52764.25;5034086;28;20029;-65
2022/09/17 00:20:49;;;;;;;2.40;0.52;;;;;;;-140.72;100.00;52790.63;5032768;28;20044;-65
2022/09/17 00:23:14;;;;;;;5.45;0.70;;;;;;;-140.72;100.00;52768.28;5031324;28;20385;-64
2022/09/17 00:25:42;;;;;;;1.00;0.35;;;;;;;-140.72;100.00;52768.28;5029818;28;20030;-67
2022/09/17 00:28:08;;;;;;;5.80;1.05;;;;;;;-140.72;100.00;52808.88;5029253;28;20139;-64
2022/09/17 00:30:34;;;;;;;7.15;0.77;;;;;;;-140.72;100.00;52768.28;5030955;28;20040;-65
2022/09/17 00:32:59;;;;;;;2.92;0.40;;;;;;;-140.72;100.00;52810.91;5030661;28;20358;-67
2022/09/17 00:35:26;;;;;;;4.57;0.85;;;;;;;-140.72;100.00;52825.13;5030725;28;20040;-65
2022/09/17 00:37:52;;;;;;;5.93;0.70;;;;;;;-140.72;100.00;52800.75;5030777;28;20041;-65
2022/09/17 00:40:18;;;;;;;2.97;0.50;;;;;;;-140.72;100.00;52782.50;5030755;28;20533;-64
2022/09/17 00:42:44;;;;;;;2.28;0.73;;;;;;;-140.72;100.00;52776.41;5029373;28;20036;-65
2022/09/17 00:45:10;;;;;;;2.85;0.20;;;;;;;-140.72;100.00;52798.72;5030389;28;20108;-67
2022/09/17 00:47:40;;;;;;;1.27;0.43;;;;;;;-140.72;100.00;52756.13;5030808;28;20189;-65
2022/09/17 00:50:06;;;;;;;0.85;0.20;;;;;;;-140.72;100.00;52792.66;5022590;28;20049;-65
2022/09/17 00:52:49;;;;;;;2.25;0.50;;;;;;;-140.72;100.00;52745.97;5030186;28;20473;-64
2022/09/17 00:55:26;;;;;;;1.17;0.45;;;;;;;-140.72;100.00;52768.28;5018329;28;20048;-63
2022/09/17 00:57:55;;;;;;;4.68;0.68;;;;;;;-140.72;100.00;52768.28;5029071;28;20029;-64
2022/09/17 01:00:21;;;;;;;3.75;0.77;;;;;;;-140.72;100.00;52772.34;5030105;28;20108;-63
2022/09/17 01:02:47;;;;;;;8.75;0.77;;;;;;;-140.72;100.00;52756.13;5028602;28;20026;-65
2022/09/17 01:05:14;;;;;;;1.17;0.35;;;;;;;-140.72;100.00;52792.66;5037927;28;20120;-66
2022/09/17 01:08:01;;;;;;;0.43;0.20;;;;;;;-140.72;100.00;52768.28;5035441;28;20045;-66
2022/09/17 01:11:23;;;;;;;0.65;0.20;;;;;;;-140.72;100.00;52766.25;5037061;28;20091;-66
2022/09/17 01:13:59;;;;;;;1.30;0.20;;;;;;;-140.72;100.00;52825.13;4980790;28;20553;-65
2022/09/17 01:16:55;;;;;;;0.40;0.10;;;;;;;-140.72;100.00;52739.88;4986920;28;20037;-65
2022/09/17 01:19:41;;;;;;;0.98;0.40;;;;;;;-140.72;100.00;52788.59;5034776;28;20037;-65
2022/09/17 01:22:40;;;;;;;3.28;0.28;;;;;;;-140.72;100.00;52786.56;5029715;28;20105;-65
2022/09/17 01:25:27;;;;;;;3.10;0.50;;;;;;;-140.72;100.00;52774.38;5041988;28;20424;-66
2022/09/17 01:28:19;;;;;;;2.00;0.43;;;;;;;-140.72;100.00;52772.34;5019857;28;20029;-65
2022/09/17 01:31:00;;;;;;;2.97;0.40;;;;;;;-140.72;100.00;52778.44;5030705;28;20119;-66
2022/09/17 01:33:39;;;;;;;2.78;0.32;;;;;;;-140.72;100.00;52829.19;5027881;28;20044;-68
2022/09/17 01:36:10;;;;;;;2.15;0.60;;;;;;;-140.72;100.00;52819.03;5028927;28;20051;-67
2022/09/17 01:38:57;;;;;;;4.47;0.70;;;;;;;-140.72;100.00;52792.66;5029197;28;20076;-66
2022/09/17 01:41:38;;;;;;;1.27;0.40;;;;;;;-140.72;100.00;52804.81;5019028;28;20026;-67
2022/09/17 01:44:12;;;;;;;5.13;0.40;;;;;;;-140.72;100.00;52790.63;5029712;28;20022;-68
2022/09/17 01:47:04;;;;;;;0.52;0.30;;;;;;;-140.72;100.00;52843.38;5030105;28;20483;-66
2022/09/17 01:49:34;;;;;;;2.83;0.55;;;;;;;-140.72;100.00;52833.22;5023517;28;20025;-68
2022/09/17 01:52:00;;;;;;;1.73;0.50;;;;;;;-140.72;100.00;52800.75;5025941;28;20039;-66
2022/09/17 01:54:48;;;;;;;2.92;0.30;;;;;;;-140.72;100.00;52825.13;5027642;28;20021;-65
2022/09/17 01:57:17;;;;;;;1.15;0.30;;;;;;;-140.72;100.00;52812.94;5028680;28;20079;-66
2022/09/17 01:59:54;;;;;;;4.32;0.47;;;;;;;-140.72;100.00;52802.78;5028515;28;20556;-64
2022/09/17 02:02:31;;;;;;;3.70;0.68;;;;;;;-140.72;100.00;52796.72;5028313;28;20112;-66
2022/09/17 02:05:10;;;;;;;3.17;0.38;;;;;;;-140.72;100.00;52835.25;5027488;28;20025;-67
2022/09/17 02:07:43;;;;;;;5.13;0.73;;;;;;;-140.72;100.00;52829.19;5028218;28;20050;-65
2022/09/17 02:10:18;;;;;;;1.52;0.50;;;;;;;-140.72;100.00;52831.19;5017497;28;20128;-66
2022/09/17 02:12:59;;;;;;;1.17;0.32;;;;;;;-140.72;100.00;52814.97;5028383;28;20030;-65
2022/09/17 02:15:32;;;;;;;0.38;0.38;;;;;;;-140.72;100.00;52819.03;5028176;28;20025;-65
2022/09/17 02:18:23;;;;;;;8.90;1.08;;;;;;;-140.72;100.00;52802.78;5028197;28;20044;-67
2022/09/17 02:20:55;;;;;;;2.30;0.95;;;;;;;-140.72;100.00;52780.47;5028303;28;20131;-66
2022/09/17 02:23:28;;;;;;;5.22;0.85;;;;;;;-140.72;100.00;52808.88;5028373;28;20032;-66
2022/09/17 02:26:03;;;;;;;1.25;0.35;;;;;;;-140.72;100.00;52786.56;5028830;28;20026;-66
2022/09/17 02:28:53;;;;;;;2.00;0.63;;;;;;;-140.72;100.00;52782.50;5031782;28;20041;-65
2022/09/17 02:31:18;;;;;;;7.47;1.00;;;;;;;-140.72;100.00;52800.75;5018362;28;20543;-66
2022/09/17 02:33:49;;;;;;;2.70;1.00;;;;;;;-140.72;100.00;52812.94;5032507;28;20104;-65
2022/09/17 02:36:15;;;;;;;1.05;0.50;;;;;;;-140.72;100.00;52808.88;5021034;28;20041;-65
2022/09/17 02:38:44;;;;;;;1.10;0.15;;;;;;;-140.72;100.00;52827.16;5026413;28;20033;-68
2022/09/17 02:41:17;;;;;;;7.32;1.08;;;;;;;-140.72;100.00;52792.66;5030451;28;20486;-66
2022/09/17 02:44:20;;;;;;;2.75;0.68;;;;;;;-140.72;100.00;52804.81;5018609;28;20037;-66
2022/09/17 02:47:03;;;;;;;4.75;0.75;;;;;;;-140.72;100.00;52817.00;5023168;28;20377;-63
2022/09/17 02:49:31;;;;;;;4.03;0.60;;;;;;;-140.72;100.00;52784.53;5024173;28;20033;-65
2022/09/17 02:51:59;;;;;;;9.07;0.95;;;;;;;-140.72;100.00;52739.88;5027818;28;20117;-65
2022/09/17 02:54:30;;;;;;;7.47;1.02;;;;;;;-140.72;100.00;52849.47;5032540;28;20029;-66
2022/09/17 02:57:28;;;;;;;3.90;1.95;;;;;;;-140.72;100.00;52804.81;5031450;28;20029;-65
2022/09/17 03:00:06;;;;;;;2.10;0.70;;;;;;;-140.72;100.00;52774.38;5017623;28;20509;-65
2022/09/17 03:02:56;;;;;;;3.80;0.77;;;;;;;-140.72;100.00;52794.69;5038980;28;20029;-66
2022/09/17 03:05:23;;;;;;;1.42;0.50;;;;;;;-140.72;100.00;52784.53;5031148;28;20508;-67
2022/09/17 03:07:49;;;;;;;1.20;0.47;;;;;;;-140.72;100.00;52817.00;5029302;28;20378;-64
2022/09/17 03:10:15;;;;;;;3.17;1.10;;;;;;;-140.72;100.00;52825.13;5031359;28;20111;-66
2022/09/17 03:12:41;;;;;;;0.90;0.52;;;;;;;-140.72;100.00;52810.91;5031792;28;20030;-66
2022/09/17 03:15:07;;;;;;;2.05;0.52;;;;;;;-140.72;100.00;52812.94;5031690;28;20017;-65
2022/09/17 03:17:32;;;;;;;1.30;0.40;;;;;;;-140.72;100.00;52812.94;5041732;28;20029;-66
2022/09/17 03:19:58;;;;;;;0.73;0.40;;;;;;;-140.72;100.00;52829.19;5032073;28;20539;-65
2022/09/17 03:22:23;;;;;;;4.40;0.90;;;;;;;-140.72;100.00;52827.16;5031873;28;20385;-65
2022/09/17 03:24:49;;;;;;;4.10;0.70;;;;;;;-140.72;100.00;52819.03;5030491;28;20029;-65
2022/09/17 03:27:14;;;;;;;5.72;0.98;;;;;;;-140.72;100.00;52780.47;5031508;28;20029;-65
2022/09/17 03:29:40;;;;;;;4.43;1.02;;;;;;;-140.72;100.00;52810.91;5031948;28;20383;-65
2022/09/17 03:32:05;;;;;;;5.07;0.60;;;;;;;-140.72;100.00;52794.69;5031263;28;20048;-65
2022/09/17 03:34:31;;;;;;;2.78;0.40;;;;;;;-140.72;100.00;52794.69;5031517;28;20285;-67
2022/09/17 03:36:56;;;;;;;8.60;0.90;;;;;;;-140.72;100.00;52837.28;5031510;28;20026;-65
2022/09/17 03:39:22;;;;;;;3.85;0.70;;;;;;;-140.72;100.00;52772.34;5030798;28;20033;-66
2022/09/17 03:41:47;;;;;;;4.28;0.60;;;;;;;-140.72;100.00;52780.47;5028810;28;20033;-66
2022/09/17 03:44:14;;;;;;;0.63;0.25;;;;;;;-140.72;100.00;52808.88;5023438;28;20029;-65
2022/09/17 03:46:40;;;;;;;8.85;1.02;;;;;;;-140.72;100.00;52796.72;5029804;28;20063;-65
2022/09/17 03:49:05;;;;;;;2.65;0.60;;;;;;;-140.72;100.00;52825.13;5031161;28;20056;-64
2022/09/17 03:51:30;;;;;;;4.97;1.02;;;;;;;-140.72;100.00;52823.09;5032371;28;20059;-64
2022/09/17 03:53:56;;;;;;;2.50;0.68;;;;;;;-140.72;100.00;52827.16;5031163;28;20040;-65
2022/09/17 03:56:21;;;;;;;1.02;0.40;;;;;;;-140.72;100.00;52812.94;5031049;28;20465;-64
2022/09/17 03:58:46;;;;;;;8.55;0.55;;;;;;;-140.72;100.00;52780.47;5030820;28;20026;-65
2022/09/17 04:01:12;;;;;;;4.05;0.57;;;;;;;-140.72;100.00;52835.25;5030097;28;20028;-66
2022/09/17 04:03:37;;;;;;;1.88;0.60;;;;;;;-140.72;100.00;52802.78;5030628;28;20241;-67
2022/09/17 04:06:03;;;;;;;2.05;0.50;;;;;;;-140.72;100.00;52786.56;5031073;28;20358;-65
2022/09/17 04:08:28;;;;;;;0.20;0.20;;;;;;;-140.72;100.00;52812.94;5031963;28;20259;-64
2022/09/17 04:10:53;;;;;;;3.78;0.55;;;;;;;-140.72;100.00;52821.06;5034929;28;20025;-65
2022/09/17 04:13:19;;;;;;;1.92;0.55;;;;;;;-140.72;100.00;52798.72;5029867;28;20389;-66
2022/09/17 04:15:45;;;;;;;2.60;0.30;;;;;;;-140.72;100.00;52804.81;5030681;28;20109;-65
2022/09/17 04:18:11;;;;;;;2.53;0.30;;;;;;;-140.72;100.00;52835.25;5030462;28;20028;-65
2022/09/17 04:20:37;;;;;;;0.45;0.10;;;;;;;-140.72;100.00;52806.84;5033485;28;20018;-67
2022/09/17 04:23:03;;;;;;;2.90;0.40;;;;;;;-140.72;100.00;52833.22;5030619;28;20035;-67
2022/09/17 04:25:29;;;;;;;1.13;0.43;;;;;;;-140.72;100.00;52829.19;5030299;28;20532;-65
2022/09/17 04:27:55;;;;;;;4.57;0.55;;;;;;;-140.72;100.00;52821.06;5029988;28;20030;-67
2022/09/17 04:30:20;;;;;;;0.98;0.32;;;;;;;-140.72;100.00;52821.06;5029796;28;20973;-65
2022/09/17 04:32:46;;;;;;;2.00;0.30;;;;;;;-140.72;100.00;52823.09;5034684;28;20165;-66
2022/09/17 04:35:12;;;;;;;0.98;0.47;;;;;;;-140.72;100.00;52819.03;5034231;28;20319;-67
2022/09/17 04:37:38;;;;;;;3.38;0.70;;;;;;;-140.72;100.00;52804.81;5031039;28;20087;-65
2022/09/17 04:40:04;;;;;;;0.68;0.40;;;;;;;-140.72;100.00;52825.13;5030954;28;20029;-65
2022/09/17 04:42:30;;;;;;;0.43;0.13;;;;;;;-140.72;100.00;52810.91;5029348;28;20740;-66
2022/09/17 04:44:56;;;;;;;3.42;0.57;;;;;;;-140.72;100.00;52833.22;5042261;28;20112;-65
2022/09/17 04:47:22;;;;;;;2.30;0.55;;;;;;;-140.72;100.00;52833.22;5035654;28;20017;-66
2022/09/17 04:49:47;;;;;;;2.25;0.68;;;;;;;-140.72;100.00;52829.19;5034407;28;20409;-65
2022/09/17 04:52:12;;;;;;;3.22;0.30;;;;;;;-140.72;100.00;52819.03;5030066;28;20482;-64
2022/09/17 04:54:38;;;;;;;2.33;0.63;;;;;;;-140.72;100.00;52823.09;5031244;28;20532;-66
2022/09/17 04:57:03;;;;;;;2.03;0.10;;;;;;;-140.72;100.00;52808.88;5029302;28;20108;-64
2022/09/17 04:59:29;;;;;;;2.42;0.25;;;;;;;-140.72;100.00;52855.56;5030090;28;20025;-65
2022/09/17 05:01:54;;;;;;;7.43;0.50;;;;;;;-140.72;100.00;52825.13;5030642;28;20029;-63
2022/09/17 05:04:20;;;;;;;1.13;0.60;;;;;;;-140.72;100.00;52841.34;5028785;28;20112;-63
2022/09/17 05:06:45;;;;;;;2.33;0.20;;;;;;;-140.72;100.00;52823.09;5031757;28;20041;-65
2022/09/17 05:09:11;;;;;;;1.48;0.50;;;;;;;-140.72;100.00;52841.34;5033449;28;20049;-65
2022/09/17 05:11:36;;;;;;;5.43;0.82;;;;;;;-140.72;100.00;52804.81;5034175;28;20037;-64
2022/09/17 05:14:02;;;;;;;5.00;0.47;;;;;;;-140.72;100.00;52794.69;5029764;28;20409;-63
2022/09/17 05:16:27;;;;;;;2.28;0.35;;;;;;;-140.72;100.00;52814.97;5030584;28;20181;-65
2022/09/17 05:18:53;;;;;;;4.45;0.55;;;;;;;-140.72;100.00;52808.88;5030047;28;20475;-65
2022/09/17 05:21:19;;;;;;;7.47;1.27;;;;;;;-140.72;100.00;52853.53;5030190;28;20029;-64
2022/09/17 05:23:45;;;;;;;1.02;0.32;;;;;;;-140.72;100.00;52879.91;5032505;28;20021;-64
2022/09/17 05:26:10;;;;;;;2.78;0.40;;;;;;;-140.72;100.00;52855.56;5033878;28;20048;-65
2022/09/17 05:28:36;;;;;;;0.52;0.32;;;;;;;-140.72;100.00;52855.56;5034423;28;20024;-64
2022/09/17 05:31:01;;;;;;;2.75;0.40;;;;;;;-140.72;100.00;52817.00;5026409;28;20062;-65
2022/09/17 05:33:27;;;;;;;2.88;0.40;;;;;;;-140.72;100.00;52817.00;5037385;28;20021;-66
2022/09/17 05:35:52;;;;;;;2.30;0.40;;;;;;;-140.72;100.00;52831.19;5033468;28;20030;-66
2022/09/17 05:38:18;;;;;;;4.93;0.50;;;;;;;-140.72;100.00;52847.44;5031279;28;20071;-66
2022/09/17 05:40:44;;;;;;;5.82;0.70;;;;;;;-140.72;100.00;52821.06;5036693;28;20082;-68
2022/09/17 05:43:10;;;;;;;0.10;0.10;;;;;;;-140.72;100.00;52827.16;5038297;28;20157;-68
2022/09/17 05:45:37;;;;;;;1.08;0.38;;;;;;;-140.72;100.00;52821.06;5025220;28;20033;-66
2022/09/17 05:48:05;;;;;;;2.45;0.60;;;;;;;-140.72;100.00;52819.03;5023819;28;20192;-66
2022/09/17 05:50:31;;;;;;;0.88;0.20;;;;;;;-140.72;100.00;52849.47;5027140;28;20434;-66
2022/09/17 05:53:03;;;;;;;1.73;0.50;;;;;;;-140.72;100.00;52821.06;5022915;28;20029;-64
2022/09/17 05:55:28;;;;;;;6.00;0.38;;;;;;;-140.72;100.00;52853.53;5025721;28;20580;-64
2022/09/17 05:57:53;;;;;;;2.45;0.30;;;;;;;-140.72;100.00;52796.72;5027699;28;20022;-64
2022/09/17 06:00:19;;;;;;;3.40;0.38;;;;;;;-140.72;100.00;52819.03;5023381;28;20085;-64
2022/09/17 06:02:44;;;;;;;1.02;0.30;;;;;;;-140.72;100.00;52825.13;5023153;28;20389;-63
2022/09/17 06:05:10;;;;;;;2.33;0.43;;;;;;;-140.72;100.00;52821.06;5020769;28;20429;-63
2022/09/17 06:07:36;;;;;;;1.85;0.80;;;;;;;-140.72;100.00;52804.81;5022063;28;20050;-63
2022/09/17 06:10:04;;;;;;;0.57;0.43;;;;;;;-140.72;100.00;52804.81;5022802;28;20025;-64
2022/09/17 06:12:30;;;;;;;2.05;0.60;;;;;;;-140.72;100.00;52768.28;5019046;28;20497;-63
2022/09/17 06:14:55;;;;;;;0.10;0.10;;;;;;;-140.72;100.00;52814.97;5022565;28;20036;-65
2022/09/17 06:17:20;;;;;;;1.25;0.32;;;;;;;-140.72;100.00;52796.72;5018225;28;20124;-64
2022/09/17 06:19:46;;;;;;;0.68;0.28;;;;;;;-140.72;100.00;52808.88;5017935;28;20513;-64
2022/09/17 06:22:11;;;;;;;1.73;0.50;;;;;;;-140.72;100.00;52772.34;5023315;28;20100;-63
2022/09/17 06:24:36;;;;;;;3.60;0.90;;;;;;;-140.72;100.00;52784.53;5026093;28;20315;-64
2022/09/17 06:27:02;;;;;;;0.98;0.20;;;;;;;-140.72;100.00;52821.06;5018482;28;20426;-64
2022/09/17 06:29:28;;;;;;;1.55;0.32;;;;;;;-140.72;100.00;52796.72;5016527;28;20270;-64
2022/09/17 06:31:53;;;;;;;0.40;0.30;;;;;;;-140.72;100.00;52784.53;5019146;28;20100;-65
2022/09/17 06:34:18;;;;;;;2.67;0.55;;;;;;;-140.72;100.00;52812.94;5031074;28;20380;-65
2022/09/17 06:36:44;;;;;;;1.67;0.50;;;;;;;-140.72;100.00;52804.81;5035068;28;20032;-64
2022/09/17 06:39:10;;;;;;;0.52;0.20;;;;;;;-140.72;100.00;52766.25;5024111;28;20200;-64
2022/09/17 06:41:37;;;;;;;1.45;0.30;;;;;;;-140.72;100.00;52788.59;5025832;28;20500;-65
2022/09/17 06:44:03;;;;;;;3.53;0.57;;;;;;;-140.72;100.00;52804.81;5029788;28;20028;-63
2022/09/17 06:46:29;;;;;;;2.10;0.73;;;;;;;-140.72;100.00;52855.56;5021502;28;20291;-64
2022/09/17 06:48:54;;;;;;;5.25;1.35;;;;;;;-140.72;100.00;52772.34;5021247;28;20144;-64
2022/09/17 06:51:21;;;;;;;1.73;0.60;;;;;;;-140.72;100.00;52823.09;5020891;28;20048;-64
2022/09/17 06:53:47;;;;;;;6.55;0.73;;;;;;;-140.72;100.00;52804.81;5033645;28;20342;-64
2022/09/17 06:56:13;;;;;;;2.42;0.40;;;;;;;-140.72;100.00;52810.91;5019838;28;20093;-65
2022/09/17 06:58:42;;;;;;;0.73;0.20;;;;;;;-140.72;100.00;52861.66;5028627;28;20367;-66
2022/09/17 07:01:10;;;;;;;6.50;0.50;;;;;;;-140.72;100.00;52825.13;5025684;28;20032;-63
2022/09/17 07:03:36;;;;;;;1.42;0.40;;;;;;;-140.72;100.00;52831.19;5024463;28;20032;-66
2022/09/17 07:06:03;;;;;;;3.60;0.40;;;;;;;-140.72;100.00;52804.81;5026873;28;20417;-65
2022/09/17 07:08:33;;;;;;;2.85;0.43;;;;;;;-140.72;100.00;52829.19;5027914;28;20081;-65
2022/09/17 07:10:58;;;;;;;2.08;0.45;;;;;;;-140.72;100.00;52835.25;5027826;28;20417;-65
2022/09/17 07:13:24;;;;;;;1.25;0.55;;;;;;;-140.72;100.00;52806.84;5031550;28;20022;-65
2022/09/17 07:15:54;;;;;;;2.22;0.70;;;;;;;-140.72;100.00;52794.69;5025392;28;20030;-65
2022/09/17 07:18:20;;;;;;;2.20;0.35;;;;;;;-140.72;100.00;52814.97;5026415;28;20071;-65
2022/09/17 07:20:52;;;;;;;1.92;0.45;;;;;;;-140.72;100.00;52776.41;5029957;28;20025;-65
2022/09/17 07:23:18;;;;;;;2.13;0.77;;;;;;;-140.72;100.00;52774.38;5027926;28;20040;-66
2022/09/17 07:25:43;;;;;;;9.68;0.50;;;;;;;-140.72;100.00;52788.59;5027000;28;20193;-65
2022/09/17 07:28:09;;;;;;;1.40;0.30;;;;;;;-140.72;100.00;52774.38;5033251;28;20083;-67
2022/09/17 07:30:34;;;;;;;2.28;0.68;;;;;;;-140.72;100.00;52849.47;5030261;28;20043;-64
2022/09/17 07:33:02;;;;;;;3.63;0.52;;;;;;;-140.72;100.00;52804.81;5036730;28;20256;-67
2022/09/17 07:35:28;;;;;;;3.35;0.32;;;;;;;-140.72;100.00;52806.84;5030223;28;20348;-65
2022/09/17 07:37:53;;;;;;;2.10;0.20;;;;;;;-140.72;100.00;52774.38;5030551;28;20029;-64
2022/09/17 07:40:18;;;;;;;3.13;0.47;;;;;;;-140.72;100.00;52817.00;5036926;28;20025;-66
2022/09/17 07:42:44;;;;;;;0.60;0.30;;;;;;;-140.72;100.00;52833.22;5031009;28;20108;-66
2022/09/17 07:45:09;;;;;;;5.90;0.63;;;;;;;-140.72;100.00;52798.72;5033803;28;20539;-66
2022/09/17 07:47:40;;;;;;;2.38;0.20;;;;;;;-140.72;100.00;52833.22;5038658;28;20460;-67
2022/09/17 07:50:07;;;;;;;1.50;0.35;;;;;;;-140.72;100.00;52780.47;5036303;28;20386;-66
2022/09/17 07:52:32;;;;;;;3.60;0.40;;;;;;;-140.72;100.00;52743.94;5029289;28;20025;-66
2022/09/17 07:54:58;;;;;;;1.40;0.38;;;;;;;-140.72;100.00;52735.81;5042971;28;20040;-66
2022/09/17 07:57:23;;;;;;;3.47;0.55;;;;;;;-140.72;100.00;52760.19;5035678;28;20145;-66
2022/09/17 07:59:48;;;;;;;9.07;0.47;;;;;;;-140.72;100.00;52770.31;5041859;28;20060;-66
2022/09/17 08:02:14;;;;;;;2.95;0.40;;;;;;;-140.72;100.00;52756.13;5031256;28;20052;-67
2022/09/17 08:04:42;;;;;;;1.17;0.35;;;;;;;-140.72;100.00;52743.94;5031376;28;20025;-69
2022/09/17 08:07:10;;;;;;;2.22;0.28;;;;;;;-140.72;100.00;52780.47;5030287;28;20037;-66
2022/09/17 08:09:36;;;;;;;1.85;0.65;;;;;;;-140.72;100.00;52778.44;5034114;28;20117;-66
2022/09/17 08:12:01;;;;;;;0.47;0.10;;;;;;;-140.72;100.00;52800.75;5032490;28;20117;-66
2022/09/17 08:14:27;;;;;;;0.17;0.10;;;;;;;-140.72;100.00;52790.63;5038281;28;20028;-66
2022/09/17 08:16:52;;;;;;;3.95;0.47;;;;;;;-140.72;100.00;52796.72;5025739;28;20030;-66
2022/09/17 08:19:17;;;;;;;0.30;0.20;;;;;;;-140.72;100.00;52776.41;5040651;28;20029;-68
2022/09/17 08:21:43;;;;;;;1.02;0.57;;;;;;;-140.72;100.00;52794.69;5038421;28;20488;-68
2022/09/17 08:24:08;;;;;;;0.20;0.20;;;;;;;-140.72;100.00;52772.34;5041838;28;20095;-67
2022/09/17 08:26:37;;;;;;;2.22;0.80;;;;;;;-140.72;100.00;52760.19;5031476;28;20475;-73
2022/09/17 08:29:03;;;;;;;0.40;0.15;;;;;;;-140.72;100.00;52721.63;5039051;28;20473;-73
2022/09/17 08:31:29;;;;;;;3.83;0.47;;;;;;;-140.72;100.00;52697.28;5029907;28;20045;-74
2022/09/17 08:33:58;;;;;;;0.20;0.10;;;;;;;-140.72;100.00;52723.66;5031129;28;20024;-73
2022/09/17 08:36:27;;;;;;;8.27;0.57;;;;;;;-140.72;100.00;52721.63;5025356;28;20056;-72
2022/09/17 08:38:53;;;;;;;0.40;0.30;;;;;;;-140.72;100.00;52715.53;5030754;28;20017;-70
2022/09/17 08:41:22;;;;;;;3.65;0.55;;;;;;;-140.72;100.00;52729.75;5030558;28;20041;-74
2022/09/17 08:44:06;;;;;;;7.28;0.88;;;;;;;-140.72;100.00;52719.59;5030262;28;20026;-73
2022/09/17 08:46:40;;;;;;;0.43;0.20;;;;;;;-140.72;100.00;52727.72;5040714;28;20110;-73
2022/09/17 08:49:35;;;;;;;0.85;0.45;;;;;;;-140.72;100.00;52739.88;5028277;28;20028;-73
2022/09/17 08:52:28;;;;;;;0.88;0.25;;;;;;;-140.72;100.00;52676.97;5026192;28;20021;-73
2022/09/17 08:55:22;;;;;;;0.80;0.47;;;;;;;-140.72;100.00;52699.31;5016776;28;20099;-73
2022/09/17 08:58:14;;;;;;;5.93;0.55;;;;;;;-140.72;100.00;52703.34;5029214;28;20453;-73
2022/09/17 09:01:05;;;;;;;2.67;0.55;;;;;;;-140.72;100.00;52642.47;5030599;28;20098;-72
2022/09/17 09:04:01;;;;;;;1.25;0.25;;;;;;;-140.72;100.00;52691.19;5024573;28;20044;-72
2022/09/17 09:06:36;;;;;;;1.02;0.15;;;;;;;-140.72;100.00;52672.91;5041713;28;20350;-73
2022/09/17 09:09:09;;;;;;;1.33;0.32;;;;;;;-140.72;100.00;52642.47;5035138;28;20050;-73
2022/09/17 09:11:35;;;;;;;1.02;0.50;;;;;;;-140.72;100.00;52652.63;5048246;28;20086;-73
2022/09/17 09:14:06;;;;;;;5.25;0.57;;;;;;;-140.72;100.00;52541.03;5022415;28;20020;-72
2022/09/17 09:16:37;;;;;;;0.55;0.40;;;;;;;-140.72;100.00;52593.78;5048222;28;20198;-72
2022/09/17 09:19:22;;;;;;;2.05;0.20;;;;;;;-140.72;100.00;52559.28;5048616;28;20075;-72
2022/09/17 09:22:00;;;;;;;1.05;0.30;;;;;;;-140.72;100.00;52634.38;5022572;28;20051;-72
2022/09/17 09:24:35;;;;;;;0.30;0.20;;;;;;;-140.72;100.00;52644.50;5032106;28;20117;-72
2022/09/17 09:27:17;;;;;;;1.88;0.50;;;;;;;-140.72;100.00;52646.53;5034458;28;20017;-73
2022/09/17 09:30:06;;;;;;;0.90;0.10;;;;;;;-140.72;100.00;52638.41;5035497;28;20799;-72
2022/09/17 09:32:43;;;;;;;2.17;0.25;;;;;;;-140.72;100.00;52654.66;5030636;28;20480;-72
2022/09/17 09:35:21;;;;;;;0.15;0.10;;;;;;;-140.72;100.00;52636.38;5038462;28;20041;-72
2022/09/17 09:38:02;;;;;;;0.63;0.30;;;;;;;-140.72;100.00;52638.41;5027719;28;20029;-71
2022/09/17 09:40:46;;;;;;;0.22;0.10;;;;;;;-140.72;100.00;52638.41;5030954;28;20264;-70
2022/09/17 09:43:22;;;;;;;0.75;0.22;;;;;;;-140.72;100.00;52689.16;5024511;28;20489;-70
2022/09/17 09:45:56;;;;;;;5.90;0.75;;;;;;;-140.72;100.00;52687.13;5031499;28;20028;-70
2022/09/17 09:48:54;;;;;;;2.72;0.52;;;;;;;-140.72;100.00;52741.91;5037989;28;20117;-70
2022/09/17 09:51:38;;;;;;;0.40;0.15;;;;;;;-140.72;100.00;52687.13;5031881;28;20056;-71
2022/09/17 09:54:21;;;;;;;2.75;0.30;;;;;;;-140.72;100.00;52699.31;5032639;28;20485;-71
2022/09/17 09:56:51;;;;;;;3.72;0.95;;;;;;;-140.72;100.00;52672.91;5028875;28;20021;-69
2022/09/17 09:59:18;;;;;;;1.92;0.47;;;;;;;-140.72;100.00;52640.44;5030693;28;20029;-69
2022/09/17 10:01:43;;;;;;;2.45;0.43;;;;;;;-140.72;100.00;52612.03;5032012;28;20457;-69
2022/09/17 10:04:22;;;;;;;1.75;0.57;;;;;;;-140.72;100.00;52638.41;5035502;28;20032;-68
2022/09/17 10:06:51;;;;;;;1.45;0.38;;;;;;;-140.72;100.00;52581.59;5039566;28;20033;-69
2022/09/17 10:09:21;;;;;;;1.50;0.30;;;;;;;-140.72;100.00;52573.50;5020204;28;20041;-68
2022/09/17 10:12:01;;;;;;;;;;;;;;;-140.72;100.00;52530.88;5043355;28;20131;-68
2022/09/17 10:14:29;;;;;;;2.72;0.68;;;;;;;-140.72;100.00;52567.41;5017855;28;19996;-68
2022/09/17 10:17:19;;;;;;;1.60;0.50;;;;;;;-140.72;100.00;52605.94;5026766;28;20053;-68
2022/09/17 10:20:01;;;;;;;0.95;0.30;;;;;;;-140.72;100.00;52664.81;5039126;28;20056;-69
2022/09/17 10:22:41;;;;;;;1.38;0.70;;;;;;;-140.72;100.00;52630.31;5030622;28;20036;-69
2022/09/17 10:25:27;;;;;;;2.03;0.60;;;;;;;-140.72;100.00;52650.59;5030677;28;20422;-72
2022/09/17 10:27:53;;;;;;;4.70;1.00;;;;;;;-140.72;100.00;52577.53;5033709;28;20038;-69
2022/09/17 10:30:19;;;;;;;5.63;0.40;;;;;;;-140.72;100.00;52595.81;5021686;28;20025;-72
2022/09/17 10:33:26;;;;;;;2.05;0.73;;;;;;;-140.72;100.00;52587.69;5029062;28;20026;-73
2022/09/17 10:35:58;;;;;;;3.33;0.70;;;;;;;-140.72;100.00;52595.81;5025805;28;20040;-69
2022/09/17 10:38:28;;;;;;;0.30;0.20;;;;;;;-140.72;100.00;52634.38;5029053;28;20107;-69
2022/09/17 10:41:23;;;;;;;1.00;0.30;;;;;;;-140.72;100.00;52569.44;5033380;28;20033;-72
2022/09/17 10:43:50;;;;;;;2.58;0.38;;;;;;;-140.72;100.00;52536.97;5026031;28;20087;-72
2022/09/17 10:46:28;;;;;;;0.30;0.10;;;;;;;-140.72;100.00;52474.06;5039823;28;20021;-69
2022/09/17 10:48:58;;;;;;;2.20;0.68;;;;;;;-140.72;100.00;52398.97;5022708;28;20398;-72
2022/09/17 10:51:25;;;;;;;2.83;0.30;;;;;;;-140.72;100.00;52352.31;5031728;28;20040;-69
2022/09/17 10:54:13;;;;;;;2.67;0.43;;;;;;;-140.72;0.00;52325.94;5031960;28;20021;-69
2022/09/17 10:56:46;;;;;;;0.83;0.30;;;;;;;-140.72;0.00;52364.47;5022911;28;20093;-70
2022/09/17 10:59:46;;;;;;;2.90;0.57;;;;;;;-140.72;0.00;52356.38;5032018;28;20048;-72
2022/09/17 11:02:45;;;;;;;2.28;0.55;;;;;;;-140.72;0.00;52346.22;5031349;28;20454;-69
2022/09/17 11:05:40;;;;;;;1.73;0.40;;;;;;;-140.72;0.00;52396.94;5032299;28;20483;-73
2022/09/17 11:08:29;;;;;;;0.63;0.22;;;;;;;-140.72;0.00;52354.34;5032270;28;20022;-69
2022/09/17 11:11:11;;;;;;;1.13;0.40;;;;;;;-140.72;0.00;52319.84;5021119;28;20037;-69
2022/09/17 11:14:09;;;;;;;0.82;0.22;;;;;;;-140.72;0.00;52289.41;5031205;28;20441;-73
2022/09/17 11:16:51;;;;;;;0.93;0.30;;;;;;;-140.72;0.00;52224.47;5024757;28;20033;-68
2022/09/17 11:19:41;;;;;;;0.85;0.20;;;;;;;-140.72;0.00;52220.41;5031917;28;20025;-69
2022/09/17 11:22:09;;;;;;;1.08;0.25;;;;;;;-140.72;0.00;52226.50;5044178;28;20091;-71
2022/09/17 11:24:56;;;;;;;0.63;0.25;;;;;;;-140.72;0.00;52265.06;5032226;28;20087;-68
2022/09/17 11:27:39;;;;;;;1.27;0.30;;;;;;;-140.72;0.00;52218.38;5031622;28;20028;-73
2022/09/17 11:30:15;;;;;;;3.30;0.40;;;;;;;-140.72;0.00;52230.56;5032419;28;20029;-69